Time;durP1;ratioP1;P1;durP2;ratioP2;P2;SDS_P1;SDS_P2;PMS_P1;PMS_P2;Temp;Humidity;BMP_temperature;BMP_pressure;BME280_temperature;BME280_humidity;BME280_pressure;Samples;Min_cycle;Max_cycle;Signal;HPM_P1;HPM_P2
2022/05/08 00:01:23;;;;;;;17.52;5.68;;;;;;;11.35;64.91;101493.59;5009366;28;20051;-45
2022/05/08 00:03:50;;;;;;;9.00;4.32;;;;;;;11.30;66.33;101489.19;5011572;28;20052;-45
2022/05/08 00:06:17;;;;;;;11.40;4.82;;;;;;;11.27;64.99;101491.72;5013277;28;20112;-40
2022/05/08 00:08:44;;;;;;;11.40;4.45;;;;;;;11.25;65.64;101498.59;5004819;28;20077;-42
2022/05/08 00:11:11;;;;;;;8.55;4.75;;;;;;;11.15;66.46;101494.09;5009604;28;20108;-41
2022/05/08 00:13:38;;;;;;;10.35;4.55;;;;;;;11.12;66.27;101499.22;5006583;28;20108;-38
2022/05/08 00:16:04;;;;;;;9.82;4.53;;;;;;;10.97;66.62;101505.88;5001599;28;20058;-42
2022/05/08 00:18:31;;;;;;;9.00;3.80;;;;;;;10.90;66.61;101498.81;5003190;28;20046;-41
2022/05/08 00:20:58;;;;;;;11.48;5.20;;;;;;;10.87;66.71;101504.81;5005888;28;20058;-42
2022/05/08 00:23:25;;;;;;;8.73;4.40;;;;;;;10.76;66.50;101507.19;5005220;28;20038;-42
2022/05/08 00:25:51;;;;;;;8.77;4.30;;;;;;;10.79;66.37;101509.88;5003704;28;20099;-40
2022/05/08 00:28:18;;;;;;;11.75;4.10;;;;;;;10.82;66.49;101516.81;5003484;28;20062;-41
2022/05/08 00:30:45;;;;;;;7.93;3.95;;;;;;;10.83;66.15;101512.50;5006421;28;20054;-41
2022/05/08 00:33:11;;;;;;;11.77;4.78;;;;;;;10.80;66.21;101514.19;5004840;28;20058;-41
2022/05/08 00:35:38;;;;;;;10.63;4.47;;;;;;;10.79;65.98;101512.47;5005253;28;20108;-40
2022/05/08 00:38:05;;;;;;;11.30;4.97;;;;;;;10.80;66.01;101514.19;5007927;28;20046;-38
2022/05/08 00:40:35;;;;;;;10.25;4.90;;;;;;;10.78;66.54;101510.69;5006307;28;20046;-43
2022/05/08 00:46:19;;;;;;;10.70;4.38;;;;;;;10.88;66.04;101510.88;5130877;27;20533;-40
2022/05/08 00:48:46;;;;;;;9.73;4.07;;;;;;;10.86;65.70;101512.56;5101943;28;20483;-41
2022/05/08 00:51:16;;;;;;;9.32;3.97;;;;;;;10.88;66.06;101510.88;5098524;28;20105;-41
2022/05/08 00:53:46;;;;;;;15.32;4.60;;;;;;;10.85;65.59;101510.81;5092166;28;20044;-39
2022/05/08 00:56:14;;;;;;;11.50;4.70;;;;;;;10.86;65.72;101515.16;5094380;28;20051;-44
2022/05/08 00:58:43;;;;;;;10.95;4.45;;;;;;;10.79;66.35;101512.47;5092859;28;20527;-41
2022/05/08 01:01:10;;;;;;;10.40;4.93;;;;;;;10.83;66.51;101509.91;5094478;28;20389;-41
2022/05/08 01:03:38;;;;;;;14.38;4.60;;;;;;;10.84;66.46;101514.25;5094042;28;20155;-40
2022/05/08 01:06:09;;;;;;;10.10;4.53;;;;;;;10.86;66.12;101512.56;5092834;28;20040;-40
2022/05/08 01:08:38;;;;;;;12.25;4.43;;;;;;;10.88;65.88;101513.47;5094031;28;20585;-42
2022/05/08 01:11:06;;;;;;;10.18;4.65;;;;;;;10.86;65.50;101507.38;5094561;28;20461;-43
2022/05/08 01:13:33;;;;;;;11.20;4.60;;;;;;;10.83;66.13;101508.19;5096726;28;20048;-42
2022/05/08 01:16:00;;;;;;;15.95;4.95;;;;;;;10.79;66.39;101511.56;5095221;28;20105;-41
2022/05/08 01:18:27;;;;;;;11.00;4.53;;;;;;;10.71;66.54;101508.81;5095635;28;20052;-41
2022/05/08 01:20:54;;;;;;;12.43;4.95;;;;;;;10.64;66.76;101496.59;5099051;28;20048;-40
2022/05/08 01:23:22;;;;;;;13.45;5.32;;;;;;;10.63;66.79;101505.19;5081916;28;20075;-40
2022/05/08 01:25:51;;;;;;;18.05;6.00;;;;;;;10.57;66.71;101512.84;5079621;28;20054;-40
2022/05/08 01:28:19;;;;;;;14.35;5.40;;;;;;;10.48;66.87;101511.81;5081678;28;20048;-41
2022/05/08 01:30:48;;;;;;;17.73;5.90;;;;;;;10.53;67.12;101515.38;5081565;28;20048;-41
2022/05/08 01:33:15;;;;;;;15.18;6.32;;;;;;;10.52;66.95;101503.28;5083489;28;20044;-39
2022/05/08 01:35:42;;;;;;;15.35;6.22;;;;;;;10.54;66.90;101501.56;5076360;28;20048;-43
2022/05/08 01:38:11;;;;;;;13.00;6.50;;;;;;;10.56;66.54;101495.53;5084580;28;20048;-40
2022/05/08 01:40:38;;;;;;;13.77;5.80;;;;;;;10.58;67.03;101501.63;5077583;28;20806;-40
2022/05/08 01:43:05;;;;;;;15.38;6.15;;;;;;;10.53;67.23;101499.84;5080219;28;20052;-44
2022/05/08 01:45:33;;;;;;;15.55;6.25;;;;;;;10.54;67.51;101495.53;5078780;28;20090;-40
2022/05/08 01:50:47;;;;;;;16.38;6.05;;;;;;;10.42;68.27;101490.94;5081120;28;20401;-42
2022/05/08 01:53:14;;;;;;;15.13;6.60;;;;;;;10.40;68.00;101492.59;5099733;28;20511;-40
2022/05/08 01:55:41;;;;;;;16.42;6.85;;;;;;;10.41;67.49;101499.53;5074731;28;20052;-43
2022/05/08 01:58:07;;;;;;;17.77;7.10;;;;;;;10.44;67.77;101498.72;5066082;28;20048;-41
2022/05/08 02:00:35;;;;;;;21.50;8.27;;;;;;;10.43;67.74;101489.22;5075919;28;20043;-40
2022/05/08 02:03:05;;;;;;;24.40;8.52;;;;;;;10.44;67.56;101491.84;5083958;28;20460;-40
2022/05/08 02:05:32;;;;;;;23.30;8.02;;;;;;;10.45;67.47;101491.03;5088199;28;20040;-40
2022/05/08 02:08:01;;;;;;;22.20;8.23;;;;;;;10.47;67.91;101489.31;5066811;28;20052;-41
2022/05/08 02:10:28;;;;;;;26.40;8.05;;;;;;;10.46;67.85;101487.59;5049707;28;20044;-39
2022/05/08 02:12:55;;;;;;;21.98;8.07;;;;;;;10.44;68.05;101489.25;5066188;28;20056;-44
2022/05/08 02:15:22;;;;;;;22.35;8.65;;;;;;;10.45;67.86;101491.03;5067154;28;20056;-40
2022/05/08 02:17:48;;;;;;;27.05;9.50;;;;;;;10.44;67.46;101490.97;5069263;28;20213;-40
2022/05/08 02:20:15;;;;;;;30.48;9.73;;;;;;;10.39;67.91;101486.56;5066980;28;20059;-42
2022/05/08 02:22:42;;;;;;;32.72;10.75;;;;;;;10.38;68.29;101494.28;5063446;28;20109;-41
2022/05/08 02:25:08;;;;;;;31.30;11.15;;;;;;;10.36;68.16;101496.84;5067088;28;20472;-43
2022/05/08 02:27:38;;;;;;;32.78;11.25;;;;;;;10.37;67.90;101492.56;5065584;28;20117;-44
2022/05/08 02:30:11;;;;;;;28.83;10.38;;;;;;;10.33;67.74;101486.41;5068782;28;20048;-44
2022/05/08 02:32:38;;;;;;;31.35;11.23;;;;;;;10.36;68.24;101490.78;5066670;28;21118;-40
2022/05/08 02:35:06;;;;;;;29.45;10.65;;;;;;;10.34;68.92;101487.31;5051757;28;20048;-48
2022/05/08 02:37:33;;;;;;;31.70;10.65;;;;;;;10.35;69.08;101483.88;5063938;28;20049;-44
2022/05/08 02:40:00;;;;;;;29.27;9.70;;;;;;;10.33;68.97;101501.09;5068459;28;20485;-41
2022/05/08 02:42:28;;;;;;;33.28;11.60;;;;;;;10.34;68.58;101500.25;5065736;28;20049;-43
2022/05/08 02:44:54;;;;;;;25.23;8.32;;;;;;;10.26;69.22;101500.94;5067446;28;20048;-41
2022/05/08 02:47:21;;;;;;;19.52;7.85;;;;;;;10.19;69.29;101501.66;5066394;28;20476;-43
2022/05/08 02:49:48;;;;;;;19.67;8.73;;;;;;;10.14;69.75;101498.94;5067478;28;20090;-43
2022/05/08 02:52:15;;;;;;;19.52;8.15;;;;;;;10.13;69.83;101504.09;5067864;28;20052;-43
2022/05/08 02:54:42;;;;;;;24.98;8.02;;;;;;;10.12;69.79;101507.53;5064177;28;20455;-45
2022/05/08 02:59:55;;;;;;;19.33;7.95;;;;;;;10.08;69.54;101500.53;5064585;28;20271;-42
2022/05/08 03:02:21;;;;;;;22.02;8.00;;;;;;;10.12;69.48;101505.84;5066000;28;20048;-42
2022/05/08 03:04:48;;;;;;;26.88;9.55;;;;;;;10.12;70.00;101497.19;5067402;28;20072;-39
2022/05/08 03:07:15;;;;;;;22.67;7.55;;;;;;;10.10;69.98;101504.06;5067689;28;20565;-39
2022/05/08 03:09:41;;;;;;;29.70;9.18;;;;;;;10.09;70.17;101502.28;5065427;28;20820;-42
2022/05/08 03:12:09;;;;;;;28.48;8.52;;;;;;;10.07;69.72;101504.88;5063028;28;20048;-39
2022/05/08 03:14:37;;;;;;;24.23;7.88;;;;;;;10.07;69.83;101499.69;5065782;28;20044;-41
2022/05/08 03:17:04;;;;;;;23.52;8.75;;;;;;;10.12;69.81;101507.53;5060782;28;20079;-42
2022/05/08 03:19:31;;;;;;;26.38;8.85;;;;;;;10.11;69.38;101503.19;5068472;28;20074;-47
2022/05/08 03:21:58;;;;;;;23.30;8.18;;;;;;;10.13;69.35;101511.88;5065209;28;20553;-45
2022/05/08 03:24:28;;;;;;;23.08;8.65;;;;;;;10.16;69.54;101505.06;5061859;28;20044;-43
2022/05/08 03:26:56;;;;;;;24.35;8.13;;;;;;;10.19;69.55;101504.25;5060943;28;20052;-39
2022/05/08 03:29:25;;;;;;;23.13;8.15;;;;;;;10.19;68.95;101504.25;5062333;28;20040;-42
2022/05/08 03:31:52;;;;;;;21.60;8.13;;;;;;;10.23;69.18;101507.78;5064823;28;20045;-42
2022/05/08 03:34:18;;;;;;;23.95;7.53;;;;;;;10.27;69.01;101502.69;5061464;28;20041;-40
2022/05/08 03:36:45;;;;;;;24.30;9.55;;;;;;;10.26;69.25;101500.94;5063160;28;20646;-40
2022/05/08 03:39:12;;;;;;;25.00;7.55;;;;;;;10.22;68.96;101501.72;5060317;28;20079;-43
2022/05/08 03:41:39;;;;;;;24.13;7.75;;;;;;;10.21;69.18;101507.75;5064896;28;20052;-45
2022/05/08 03:44:05;;;;;;;22.38;7.65;;;;;;;10.19;69.15;101498.19;5086078;28;20113;-48
2022/05/08 03:46:33;;;;;;;23.30;7.00;;;;;;;10.19;69.48;101500.78;5067532;28;20048;-57
2022/05/08 03:49:00;;;;;;;24.25;6.95;;;;;;;10.14;69.78;101500.69;5065634;28;20048;-42
2022/05/08 03:51:26;;;;;;;18.05;6.95;;;;;;;10.07;70.25;101498.78;5064172;28;20169;-42
2022/05/08 03:53:54;;;;;;;18.65;7.05;;;;;;;10.06;69.94;101491.88;5060097;28;20048;-41
2022/05/08 03:56:21;;;;;;;18.75;6.40;;;;;;;10.06;69.84;101495.31;5066704;28;20044;-42
2022/05/08 03:58:48;;;;;;;18.48;6.32;;;;;;;10.00;71.15;101492.63;5063145;28;20074;-40
2022/05/08 04:01:14;;;;;;;14.77;5.88;;;;;;;9.97;70.82;101493.38;5064119;28;20040;-40
2022/05/08 04:03:41;;;;;;;17.75;6.18;;;;;;;9.95;70.43;101492.50;5061940;28;20141;-39
2022/05/08 04:06:08;;;;;;;17.50;6.72;;;;;;;9.97;70.61;101488.22;5065949;28;20052;-40
2022/05/08 04:08:34;;;;;;;15.82;5.75;;;;;;;9.92;70.58;101496.75;5060804;28;20056;-41
2022/05/08 04:11:02;;;;;;;13.93;4.93;;;;;;;9.94;70.89;101495.94;5064293;28;20044;-50
2022/05/08 04:13:28;;;;;;;12.27;5.95;;;;;;;9.90;70.96;101494.13;5064908;28;20060;-45
2022/05/08 04:18:42;;;;;;;17.38;5.30;;;;;;;9.92;70.72;101495.00;5062461;28;20728;-39
2022/05/08 04:21:09;;;;;;;12.63;5.43;;;;;;;9.85;71.41;101487.94;5061999;28;20484;-44
2022/05/08 04:26:22;;;;;;;16.00;5.43;;;;;;;9.81;71.79;101496.47;5062246;28;20053;-41
2022/05/08 04:28:49;;;;;;;12.32;4.80;;;;;;;9.81;71.20;101491.28;5062141;28;20070;-43
2022/05/08 04:31:15;;;;;;;14.32;5.88;;;;;;;9.78;71.78;101492.09;5063926;28;20504;-43
2022/05/08 04:33:44;;;;;;;11.95;4.75;;;;;;;9.75;71.37;101485.16;5066761;28;20128;-39
2022/05/08 04:36:11;;;;;;;12.50;4.93;;;;;;;9.80;70.99;101494.72;5063230;28;20560;-40
2022/05/08 04:38:38;;;;;;;12.30;5.30;;;;;;;9.84;71.43;101487.09;5066506;28;20040;-43
2022/05/08 04:41:05;;;;;;;14.95;6.15;;;;;;;9.90;71.20;101496.69;5064634;28;20102;-40
2022/05/08 04:43:32;;;;;;;14.32;5.43;;;;;;;9.93;70.97;101496.75;5063973;28;20044;-42
2022/05/08 04:45:59;;;;;;;10.98;5.15;;;;;;;9.94;70.77;101503.69;5062259;28;20052;-41
2022/05/08 04:48:25;;;;;;;10.85;4.70;;;;;;;9.94;70.42;101508.88;5063653;28;20048;-40
2022/05/08 04:50:52;;;;;;;11.43;4.90;;;;;;;9.91;71.28;101498.44;5063958;28;20052;-41
2022/05/08 04:53:19;;;;;;;13.90;5.07;;;;;;;9.93;70.70;101507.09;5061315;28;20036;-48
2022/05/08 04:55:45;;;;;;;15.07;5.88;;;;;;;9.94;70.86;101502.81;5063006;28;20531;-40
2022/05/08 04:58:12;;;;;;;15.27;5.35;;;;;;;9.94;70.34;101503.69;5052591;28;20078;-47
2022/05/08 05:00:39;;;;;;;17.50;6.32;;;;;;;9.92;70.43;101505.34;5061803;28;20045;-42
2022/05/08 05:03:05;;;;;;;19.27;7.00;;;;;;;9.91;70.70;101503.63;5066925;28;20499;-39
2022/05/08 05:05:34;;;;;;;24.33;8.80;;;;;;;9.89;70.90;101505.28;5083570;28;20229;-39
2022/05/08 05:08:00;;;;;;;19.90;8.32;;;;;;;9.85;70.94;101509.53;5063711;28;20080;-44
2022/05/08 05:10:27;;;;;;;25.95;7.88;;;;;;;9.79;71.35;101508.50;5058124;28;20680;-40
2022/05/08 05:12:54;;;;;;;22.15;9.38;;;;;;;9.77;71.25;101509.31;5064278;28;20634;-42
2022/05/08 05:15:21;;;;;;;23.20;8.52;;;;;;;9.79;70.88;101519.72;5062366;28;20488;-42
2022/05/08 05:17:49;;;;;;;23.75;7.90;;;;;;;9.82;71.01;101518.91;5063261;28;20052;-41
2022/05/08 05:20:16;;;;;;;28.48;9.02;;;;;;;9.89;70.64;101523.41;5061724;28;20056;-45
2022/05/08 05:22:42;;;;;;;24.58;7.43;;;;;;;9.96;70.48;101527.88;5059245;28;20068;-41
2022/05/08 05:25:09;;;;;;;20.17;6.57;;;;;;;10.00;70.37;101519.34;5056146;28;20044;-46
2022/05/08 05:27:36;;;;;;;20.27;6.80;;;;;;;10.07;70.75;101530.75;5064076;28;20134;-42
2022/05/08 05:30:03;;;;;;;22.42;8.02;;;;;;;10.11;70.20;101535.16;5062407;28;20053;-45
2022/05/08 05:32:30;;;;;;;21.40;7.13;;;;;;;10.13;70.14;101535.16;5064770;28;20045;-43
2022/05/08 05:34:57;;;;;;;19.90;7.47;;;;;;;10.18;70.03;101538.75;5069131;28;20109;-42
2022/05/08 05:37:23;;;;;;;24.65;7.80;;;;;;;10.21;69.05;101537.94;5063628;28;20496;-41
2022/05/08 05:39:50;;;;;;;23.15;7.53;;;;;;;10.25;69.44;101543.25;5069279;28;20062;-42
2022/05/08 05:42:17;;;;;;;24.02;7.07;;;;;;;10.25;69.18;101548.41;5068320;28;20044;-43
2022/05/08 05:44:43;;;;;;;23.23;7.90;;;;;;;10.28;69.44;101538.13;5066166;28;20625;-43
2022/05/08 05:49:56;;;;;;;21.13;7.35;;;;;;;10.31;68.91;101549.38;5064150;28;20056;-44
2022/05/08 05:52:23;;;;;;;26.08;9.13;;;;;;;10.31;69.29;101549.38;5063517;28;20512;-40
2022/05/08 05:54:50;;;;;;;24.95;8.80;;;;;;;10.30;69.11;101553.69;5062865;28;20060;-42
2022/05/08 05:57:19;;;;;;;28.98;9.38;;;;;;;10.30;69.30;101553.69;5059135;28;20041;-44
2022/05/08 05:59:46;;;;;;;32.88;9.20;;;;;;;10.31;69.02;101554.56;5065795;28;20048;-43
2022/05/08 06:02:12;;;;;;;26.35;9.70;;;;;;;10.30;68.94;101556.25;5060682;28;20144;-41
2022/05/08 06:04:39;;;;;;;27.30;10.02;;;;;;;10.29;69.00;101563.19;5063539;28;20072;-43
2022/05/08 06:07:06;;;;;;;25.70;9.63;;;;;;;10.24;69.02;101569.94;5061636;28;20048;-39
2022/05/08 06:09:32;;;;;;;20.13;5.82;;;;;;;10.15;69.10;101561.97;5060484;28;20045;-39
2022/05/08 06:11:59;;;;;;;17.83;7.80;;;;;;;10.00;70.26;101559.91;5065605;28;20622;-42
2022/05/08 06:14:26;;;;;;;17.10;6.93;;;;;;;9.94;70.33;101560.63;5067887;28;20049;-41
2022/05/08 06:16:54;;;;;;;20.55;7.50;;;;;;;9.90;69.79;101558.81;5065150;28;20191;-40
2022/05/08 06:19:21;;;;;;;19.23;7.05;;;;;;;9.86;70.67;101564.75;5061530;28;20083;-42
2022/05/08 06:21:52;;;;;;;15.00;6.15;;;;;;;9.77;70.22;101563.66;5057114;28;20057;-40
2022/05/08 06:24:20;;;;;;;16.85;7.10;;;;;;;9.78;69.92;101556.78;5061538;28;20048;-39
2022/05/08 06:26:46;;;;;;;17.38;7.68;;;;;;;9.70;69.80;101572.13;5063524;28;20107;-43
2022/05/08 06:29:13;;;;;;;20.48;7.45;;;;;;;9.71;69.93;101558.34;5065752;28;20045;-41
2022/05/08 06:31:39;;;;;;;19.77;7.82;;;;;;;9.80;69.66;101564.59;5061095;28;20109;-41
2022/05/08 06:34:08;;;;;;;24.27;8.23;;;;;;;9.90;69.26;101569.16;5065334;28;20484;-41
2022/05/08 06:36:35;;;;;;;18.48;6.47;;;;;;;9.95;69.21;101572.72;5066171;28;20413;-41
2022/05/08 06:39:02;;;;;;;19.25;6.95;;;;;;;9.99;68.34;101569.38;5065681;28;20045;-43
2022/05/08 06:41:29;;;;;;;21.15;7.47;;;;;;;10.00;68.39;101565.09;5065924;28;20098;-40
2022/05/08 06:43:56;;;;;;;15.95;5.53;;;;;;;10.09;68.22;101569.59;5062781;28;20053;-42
2022/05/08 06:46:22;;;;;;;14.57;5.20;;;;;;;10.15;67.99;101569.75;5065435;28;20047;-41
2022/05/08 06:48:49;;;;;;;11.45;3.88;;;;;;;10.15;68.49;101581.00;5066713;28;20044;-40
2022/05/08 06:51:16;;;;;;;14.32;3.92;;;;;;;10.02;68.26;101582.41;5062199;28;20044;-42
2022/05/08 06:53:43;;;;;;;13.77;5.10;;;;;;;10.02;68.29;101590.16;5064890;28;20049;-39
2022/05/08 06:56:16;;;;;;;18.95;6.65;;;;;;;10.11;68.49;101586.06;5060517;28;20044;-44
2022/05/08 07:01:45;;;;;;;24.88;8.18;;;;;;;10.18;67.81;101587.94;5044837;28;20638;-42
2022/05/08 07:04:12;;;;;;;19.58;6.05;;;;;;;10.18;67.75;101598.31;5060693;28;20712;-41
2022/05/08 07:06:39;;;;;;;16.08;5.63;;;;;;;10.10;67.81;101602.44;5058496;28;20066;-39
2022/05/08 07:09:13;;;;;;;21.30;7.00;;;;;;;9.97;67.60;101596.94;5063684;28;20060;-41
2022/05/08 07:11:41;;;;;;;20.50;5.57;;;;;;;9.80;68.21;101603.41;5062976;28;20048;-44
2022/05/08 07:14:08;;;;;;;20.80;5.78;;;;;;;9.64;68.24;101603.91;5064799;28;20152;-40
2022/05/08 07:16:34;;;;;;;21.50;6.28;;;;;;;9.72;68.70;101601.50;5062305;28;20041;-42
2022/05/08 07:19:01;;;;;;;19.25;5.88;;;;;;;9.81;68.74;101600.88;5063903;28;20041;-44
2022/05/08 07:21:28;;;;;;;23.77;7.80;;;;;;;9.74;68.47;101594.66;5063516;28;20101;-40
2022/05/08 07:23:55;;;;;;;17.77;5.75;;;;;;;9.82;67.97;101592.25;5061901;28;20049;-42
2022/05/08 07:26:22;;;;;;;19.70;6.25;;;;;;;9.94;68.20;101599.47;5063970;28;20792;-44
2022/05/08 07:28:49;;;;;;;16.77;6.15;;;;;;;10.07;67.71;101597.16;5064318;28;20067;-40
2022/05/08 07:31:16;;;;;;;22.00;7.38;;;;;;;10.16;67.56;101597.38;5062156;28;20055;-42
2022/05/08 07:33:43;;;;;;;20.83;6.63;;;;;;;10.26;66.71;101595.88;5066354;28;20071;-41
2022/05/08 07:36:13;;;;;;;20.85;5.93;;;;;;;10.37;67.05;101588.38;5066653;28;20056;-42
2022/05/08 07:41:17;;;;;;;16.70;4.18;;;;;;;10.47;66.86;101598.13;5057393;28;20394;-41
2022/05/08 07:43:45;;;;;;;13.02;4.00;;;;;;;10.68;66.90;101607.25;5011807;27;20054;-45
2022/05/08 07:46:13;;;;;;;10.93;2.95;;;;;;;11.02;66.03;101597.56;4993860;28;20073;-41
2022/05/08 07:48:40;;;;;;;9.75;3.92;;;;;;;11.26;66.30;101606.69;5006277;28;20395;-44
2022/05/08 07:51:07;;;;;;;11.60;4.07;;;;;;;11.40;64.99;101596.59;5007763;28;20510;-44
2022/05/08 07:53:33;;;;;;;16.45;3.25;;;;;;;11.54;64.85;101595.94;5017221;28;20050;-43
2022/05/08 07:56:00;;;;;;;13.57;2.97;;;;;;;11.76;64.52;101594.59;5008827;28;20053;-44
2022/05/08 07:58:28;;;;;;;21.02;3.75;;;;;;;12.02;63.64;101586.38;4994718;28;20046;-41
2022/05/08 08:01:00;;;;;;;9.25;4.57;;;;;;;12.52;64.14;101586.25;5010254;28;20425;-42
2022/05/08 08:03:29;;;;;;;10.90;4.22;;;;;;;13.05;61.16;101595.63;5010112;28;20402;-41
2022/05/08 08:05:57;;;;;;;14.05;3.85;;;;;;;13.40;61.86;101596.88;5007613;28;20046;-40
2022/05/08 08:08:36;;;;;;;11.45;2.67;;;;;;;14.03;60.48;101597.47;4978146;28;20071;-45
2022/05/08 08:11:04;;;;;;;11.40;2.88;;;;;;;14.41;58.63;101589.03;5008452;28;20046;-45
2022/05/08 08:13:34;;;;;;;13.32;4.78;;;;;;;14.67;59.18;101592.66;5001825;28;20462;-43
2022/05/08 08:16:02;;;;;;;8.15;1.80;;;;;;;14.98;54.80;101600.63;5010330;28;20137;-42
2022/05/08 08:18:30;;;;;;;10.07;1.80;;;;;;;14.90;53.25;101593.66;5002299;28;20104;-44
2022/05/08 08:20:57;;;;;;;9.15;2.20;;;;;;;15.09;53.49;101588.50;5005885;28;20057;-44
2022/05/08 08:23:24;;;;;;;10.88;2.40;;;;;;;15.27;53.28;101592.91;4999313;28;20042;-41
2022/05/08 08:25:51;;;;;;;17.65;3.40;;;;;;;15.37;52.50;101599.00;4998956;28;20058;-41
2022/05/08 08:28:18;;;;;;;8.77;2.22;;;;;;;15.63;53.66;101590.34;5002964;28;20064;-40
2022/05/08 08:30:45;;;;;;;8.27;2.28;;;;;;;15.74;52.59;101592.13;4999360;28;20066;-44
2022/05/08 08:33:11;;;;;;;6.60;2.75;;;;;;;15.73;51.61;101595.56;5003170;28;20049;-47
2022/05/08 08:35:39;;;;;;;14.77;2.22;;;;;;;16.08;51.35;101597.38;4998024;28;20053;-42
2022/05/08 08:38:08;;;;;;;7.18;1.88;;;;;;;16.36;50.05;101597.31;5008988;28;21087;-46
2022/05/08 08:40:42;;;;;;;6.10;1.77;;;;;;;16.57;49.46;101600.75;5004846;28;20049;-42
2022/05/08 08:43:09;;;;;;;11.63;2.50;;;;;;;16.75;49.17;101597.19;5012019;28;20053;-44
2022/05/08 08:48:27;;;;;;;5.10;1.73;;;;;;;16.76;47.57;101595.47;4984518;28;20050;-44
2022/05/08 08:50:56;;;;;;;6.45;1.60;;;;;;;16.62;47.19;101598.97;4998367;28;20050;-41
2022/05/08 08:53:24;;;;;;;11.73;1.75;;;;;;;16.72;47.05;101596.34;4996117;28;20058;-44
2022/05/08 08:55:51;;;;;;;6.82;1.88;;;;;;;16.74;48.02;101590.22;4995036;28;20077;-45
2022/05/08 08:58:19;;;;;;;8.20;1.92;;;;;;;16.66;48.06;101590.28;4995323;28;20112;-42
2022/05/08 09:00:48;;;;;;;7.10;1.92;;;;;;;16.87;47.79;101592.78;4991545;28;20105;-42
2022/05/08 09:03:20;;;;;;;6.60;1.65;;;;;;;17.10;47.31;101587.50;4987323;28;20145;-46
2022/05/08 09:05:46;;;;;;;7.93;2.03;;;;;;;17.15;46.26;101588.31;4987033;28;20046;-41
2022/05/08 09:08:26;;;;;;;9.73;2.80;;;;;;;17.18;47.02;101598.78;4988216;28;20136;-44
2022/05/08 09:10:54;;;;;;;7.95;1.58;;;;;;;17.47;46.63;101589.84;4975915;28;20510;-44
2022/05/08 09:13:22;;;;;;;10.98;1.90;;;;;;;17.73;46.19;101595.78;4995176;28;20413;-44
2022/05/08 09:15:50;;;;;;;10.70;2.30;;;;;;;18.02;45.97;101599.03;4990299;28;20057;-43
2022/05/08 09:18:16;;;;;;;10.90;1.92;;;;;;;18.18;46.88;101594.56;4994953;28;20053;-43
2022/05/08 09:20:48;;;;;;;6.32;1.77;;;;;;;18.16;46.97;101589.34;4994552;28;20042;-45
2022/05/08 09:25:59;;;;;;;9.32;3.10;;;;;;;18.18;45.42;101584.97;5017175;28;20418;-44
2022/05/08 09:31:16;;;;;;;6.70;1.33;;;;;;;18.69;45.89;101594.03;5035178;27;20413;-43
2022/05/08 09:33:44;;;;;;;7.95;1.67;;;;;;;18.93;44.41;101586.72;5023884;28;20042;-47
2022/05/08 09:38:50;;;;;;;13.02;2.58;;;;;;;18.97;44.96;101590.16;5059819;28;20392;-42
2022/05/08 09:41:20;;;;;;;8.02;2.40;;;;;;;19.12;45.20;101581.25;5010512;28;20148;-42
2022/05/08 09:43:48;;;;;;;8.82;1.73;;;;;;;19.34;43.88;101591.44;5010092;28;20054;-42
2022/05/08 09:46:15;;;;;;;9.13;1.88;;;;;;;19.65;44.82;101594.47;5004133;28;20053;-47
2022/05/08 09:48:42;;;;;;;8.10;1.83;;;;;;;19.94;44.17;101583.47;5011910;28;20050;-52
2022/05/08 09:51:11;;;;;;;8.32;2.13;;;;;;;20.28;43.44;101583.78;5010989;28;20410;-48
2022/05/08 09:53:39;;;;;;;9.05;1.65;;;;;;;20.20;43.10;101582.19;5004569;28;20065;-45
2022/05/08 09:56:11;;;;;;;8.50;1.50;;;;;;;19.78;42.55;101582.00;5008083;28;20042;-47
2022/05/08 09:58:40;;;;;;;7.47;1.90;;;;;;;19.58;43.05;101584.06;5034900;28;20140;-45
2022/05/08 10:01:07;;;;;;;9.45;2.47;;;;;;;19.51;43.75;101578.91;5007678;28;20093;-46
2022/05/08 10:03:34;;;;;;;9.68;2.05;;;;;;;19.68;43.62;101569.88;5013420;28;20050;-43
2022/05/08 10:06:02;;;;;;;8.85;2.05;;;;;;;19.54;43.55;101570.13;5009951;28;20554;-40
2022/05/08 10:08:33;;;;;;;8.98;1.67;;;;;;;19.58;42.75;101565.66;5012604;28;20105;-46
2022/05/08 10:13:54;;;;;;;9.73;1.85;;;;;;;19.37;44.07;101560.75;5000311;28;20513;-45
2022/05/08 10:22:10;;;;;;;7.78;1.52;;;;;;;19.92;44.18;101565.09;5037040;28;20417;-45
2022/05/08 10:24:47;;;;;;;6.95;1.73;;;;;;;19.89;43.32;101563.41;5020981;28;20060;-43
2022/05/08 10:35:25;;;;;;;10.93;2.17;;;;;;;20.34;43.35;101563.50;5048413;28;21112;-45
2022/05/08 10:38:19;;;;;;;7.85;2.40;;;;;;;20.52;43.37;101559.63;5000017;28;20055;-43
2022/05/08 10:43:28;;;;;;;10.90;2.08;;;;;;;20.65;43.34;101562.88;5013059;28;20407;-47
2022/05/08 10:45:56;;;;;;;7.00;3.25;;;;;;;20.62;42.58;101570.84;4990177;28;20366;-44
2022/05/08 10:48:25;;;;;;;7.55;2.08;;;;;;;20.55;42.60;101567.47;5026278;28;20490;-48
2022/05/08 10:53:31;;;;;;;12.35;2.85;;;;;;;20.13;42.97;101560.41;5061429;28;20405;-46
2022/05/08 10:56:03;;;;;;;7.35;2.90;;;;;;;20.32;43.23;101565.28;5029362;28;20576;-50
2022/05/08 10:58:30;;;;;;;11.57;2.67;;;;;;;20.63;43.50;101556.75;5021784;28;20049;-48
2022/05/08 11:00:58;;;;;;;7.53;2.33;;;;;;;20.81;43.38;101564.28;5016508;28;20042;-46
2022/05/08 11:03:25;;;;;;;8.05;3.15;;;;;;;20.68;43.17;101557.56;5012040;28;20049;-45
2022/05/08 11:05:52;;;;;;;9.27;3.45;;;;;;;20.79;43.62;101566.09;5016185;28;20145;-47
2022/05/08 11:08:29;;;;;;;8.35;3.45;;;;;;;20.84;43.93;101570.38;5008732;28;20057;-43
2022/05/08 11:10:58;;;;;;;7.35;2.92;;;;;;;20.80;42.59;101565.19;5014213;28;20825;-46
2022/05/08 11:13:36;;;;;;;10.77;4.00;;;;;;;20.57;41.75;101549.00;5017594;28;20054;-43
2022/05/08 11:16:03;;;;;;;8.07;2.70;;;;;;;20.48;43.47;101547.44;5011510;28;20057;-43
2022/05/08 11:18:30;;;;;;;10.13;3.55;;;;;;;20.52;43.75;101549.09;5014938;28;20124;-47
2022/05/08 11:21:00;;;;;;;11.07;2.92;;;;;;;20.62;43.56;101558.56;5011432;28;20078;-51
2022/05/08 11:36:44;;;;;;;8.02;1.73;;;;;;;20.77;43.72;101535.44;5019569;28;20613;-46
2022/05/08 11:39:15;;;;;;;8.63;1.95;;;;;;;20.69;42.55;101540.84;4998931;28;20096;-44
2022/05/08 11:41:44;;;;;;;6.95;1.75;;;;;;;20.81;42.46;101530.06;4994820;28;20058;-43
2022/05/08 11:46:51;;;;;;;20.40;11.02;;;;;;;20.91;42.77;101527.25;4992927;27;20928;-45
2022/05/08 11:54:40;;;;;;;6.80;1.52;;;;;;;21.06;41.87;101526.91;5107512;27;20404;-42
2022/05/08 11:57:24;;;;;;;9.35;2.15;;;;;;;20.88;42.49;101522.94;5089384;28;20105;-41
2022/05/08 12:00:03;;;;;;;6.13;1.80;;;;;;;20.98;42.10;101520.97;5090232;28;20052;-40
2022/05/08 12:02:49;;;;;;;10.02;1.80;;;;;;;20.87;42.22;101515.03;5088511;28;20156;-41
2022/05/08 12:05:18;;;;;;;7.28;1.52;;;;;;;20.65;41.54;101515.50;5074191;28;20492;-47
2022/05/08 12:07:45;;;;;;;7.15;2.85;;;;;;;20.73;42.52;101512.72;5084970;28;20493;-42
2022/05/08 12:10:13;;;;;;;5.50;2.00;;;;;;;20.75;41.70;101511.78;5091673;28;20047;-43
2022/05/08 12:12:41;;;;;;;7.40;1.80;;;;;;;20.65;43.02;101504.97;5085468;28;20052;-43
2022/05/08 12:20:26;;;;;;;8.60;2.13;;;;;;;21.24;43.19;101502.81;5031864;28;21076;-45
2022/05/08 12:31:04;;;;;;;8.02;1.65;;;;;;;20.84;41.26;101483.50;5012340;28;20426;-44
2022/05/08 12:33:31;;;;;;;11.38;1.80;;;;;;;20.74;42.69;101483.69;4989892;28;20046;-44
2022/05/08 12:35:58;;;;;;;10.18;1.98;;;;;;;20.65;41.29;101478.66;4995946;28;20049;-40
2022/05/08 12:38:26;;;;;;;8.48;1.75;;;;;;;20.44;41.27;101470.34;4992635;28;20104;-41
2022/05/08 12:40:52;;;;;;;7.47;2.72;;;;;;;20.57;41.59;101470.06;4991274;28;20050;-39
2022/05/08 12:43:19;;;;;;;8.63;1.73;;;;;;;20.55;42.42;101463.06;4976646;28;20054;-43
2022/05/08 12:45:47;;;;;;;9.35;2.10;;;;;;;20.54;42.48;101456.06;4979241;28;20545;-42
2022/05/08 12:48:19;;;;;;;5.90;1.88;;;;;;;20.41;42.48;101459.88;4978026;28;20458;-42
2022/05/08 12:50:48;;;;;;;5.40;1.67;;;;;;;20.13;41.81;101460.44;4987342;28;20096;-40
2022/05/08 12:53:14;;;;;;;7.63;2.22;;;;;;;20.27;42.19;101458.38;4997604;28;20479;-46